createdAt,value
2018-02-25T00:02:17.574Z,34.60
2018-02-25T00:04:45.868Z,34.50
2018-02-25T00:07:14.163Z,34.60
2018-02-25T00:09:42.831Z,34.80
2018-02-25T00:12:11.130Z,34.30
2018-02-25T00:14:39.434Z,34.60
2018-02-25T00:17:07.719Z,34.70
2018-02-25T00:19:36.056Z,34.70
2018-02-25T00:22:04.339Z,34.90
2018-02-25T00:24:32.647Z,35.10
2018-02-25T00:27:00.947Z,35.00
2018-02-25T00:29:30.018Z,36.20
2018-02-25T00:31:58.602Z,35.50
2018-02-25T00:34:26.893Z,36.10
2018-02-25T00:36:55.165Z,35.60
2018-02-25T00:39:23.461Z,35.90
2018-02-25T00:41:52.151Z,35.60
2018-02-25T00:44:21.203Z,36.10
2018-02-25T00:46:49.465Z,36.00
2018-02-25T00:49:17.804Z,35.80
2018-02-25T00:51:46.805Z,35.80
2018-02-25T00:54:15.113Z,35.80
2018-02-25T00:56:43.412Z,35.80
2018-02-25T00:59:11.717Z,35.60
2018-02-25T01:01:39.975Z,35.90
2018-02-25T01:04:09.016Z,36.50
2018-02-25T01:06:37.258Z,36.00
2018-02-25T01:09:05.613Z,36.20
2018-02-25T01:11:33.868Z,36.00
2018-02-25T01:14:02.113Z,35.80
2018-02-25T01:16:31.162Z,35.60
2018-02-25T01:19:00.219Z,35.70
2018-02-25T01:21:28.473Z,35.70
2018-02-25T01:23:57.544Z,35.60
2018-02-25T01:26:25.797Z,35.50
2018-02-25T01:28:54.095Z,35.80
2018-02-25T01:31:22.423Z,35.70
2018-02-25T01:33:50.683Z,36.50
2018-02-25T01:36:19.768Z,35.80
2018-02-25T01:38:47.997Z,35.80
2018-02-25T01:41:16.291Z,35.90
2018-02-25T01:43:44.568Z,35.70
2018-02-25T01:46:12.825Z,35.80
2018-02-25T01:48:41.124Z,35.60
2018-02-25T01:51:09.436Z,35.80
2018-02-25T01:53:37.703Z,35.70
2018-02-25T01:56:05.952Z,35.90
2018-02-25T01:58:34.225Z,35.60
2018-02-25T02:01:02.510Z,35.80
2018-02-25T02:03:30.753Z,35.60
2018-02-25T02:05:59.055Z,35.90
2018-02-25T02:08:27.316Z,35.60
2018-02-25T02:10:55.617Z,35.90
2018-02-25T02:13:23.857Z,36.00
2018-02-25T02:15:52.167Z,36.30
2018-02-25T02:18:21.180Z,35.90
2018-02-25T02:20:49.486Z,35.90
2018-02-25T02:23:18.512Z,36.00
2018-02-25T02:25:46.754Z,35.90
2018-02-25T02:28:15.846Z,36.50
2018-02-25T02:30:44.899Z,36.70
2018-02-25T02:33:13.216Z,36.70
2018-02-25T02:35:42.236Z,36.20
2018-02-25T02:38:10.539Z,36.20
2018-02-25T02:40:38.796Z,36.40
2018-02-25T02:43:07.089Z,36.50
2018-02-25T02:45:35.361Z,36.30
2018-02-25T02:48:03.653Z,36.60
2018-02-25T02:50:31.987Z,36.30
2018-02-25T02:53:01.035Z,36.30
2018-02-25T02:55:29.333Z,36.20
2018-02-25T02:57:57.601Z,36.30
2018-02-25T03:00:25.892Z,36.20
2018-02-25T03:02:54.146Z,36.80
2018-02-25T03:05:22.437Z,36.50
2018-02-25T03:07:50.704Z,36.90
2018-02-25T03:10:18.949Z,36.90
2018-02-25T03:12:47.205Z,36.70
2018-02-25T03:15:15.474Z,36.40
2018-02-25T03:17:44.524Z,37.20
2018-02-25T03:20:13.552Z,36.90
2018-02-25T03:22:42.619Z,37.10
2018-02-25T03:25:10.886Z,36.80
2018-02-25T03:27:39.136Z,37.00
2018-02-25T03:30:07.391Z,37.00
2018-02-25T03:32:36.442Z,36.90
2018-02-25T03:35:04.710Z,36.80
2018-02-25T03:37:32.970Z,36.90
2018-02-25T03:40:01.261Z,36.90
2018-02-25T03:42:29.548Z,37.10
2018-02-25T03:44:57.821Z,37.10
2018-02-25T03:47:26.358Z,37.40
2018-02-25T03:49:54.696Z,37.30
2018-02-25T03:52:22.955Z,37.60
2018-02-25T03:54:51.247Z,37.80
2018-02-25T03:57:19.560Z,38.00
2018-02-25T03:59:48.566Z,38.40
2018-02-25T04:02:16.838Z,38.40
2018-02-25T04:04:45.104Z,37.90
2018-02-25T04:07:14.171Z,38.20
2018-02-25T04:09:42.467Z,38.20
2018-02-25T04:12:10.766Z,38.90
2018-02-25T04:14:39.784Z,38.50
2018-02-25T04:17:08.067Z,38.50
2018-02-25T04:19:36.368Z,38.10
2018-02-25T04:22:04.616Z,37.50
2018-02-25T04:24:32.897Z,38.60
2018-02-25T04:27:01.146Z,37.80
2018-02-25T04:29:30.205Z,37.90
2018-02-25T04:31:58.472Z,37.80
2018-02-25T04:34:26.743Z,38.20
2018-02-25T04:36:55.052Z,37.50
2018-02-25T04:39:23.348Z,38.10
2018-02-25T04:41:52.424Z,38.10
2018-02-25T04:44:20.680Z,38.00
2018-02-25T04:46:48.973Z,38.10
2018-02-25T04:49:17.271Z,38.00
2018-02-25T04:51:46.907Z,38.80
2018-02-25T04:54:15.876Z,38.80
2018-02-25T04:56:44.181Z,39.00
2018-02-25T04:59:12.463Z,39.00
2018-02-25T05:01:40.739Z,39.00
2018-02-25T05:04:08.984Z,39.00
2018-02-25T05:06:38.030Z,38.30
2018-02-25T05:09:06.287Z,38.30
2018-02-25T05:11:34.584Z,38.40
2018-02-25T05:14:03.599Z,38.80
2018-02-25T05:16:31.889Z,38.70
2018-02-25T05:19:00.161Z,38.40
2018-02-25T05:21:28.401Z,39.00
2018-02-25T05:23:56.674Z,38.10
2018-02-25T05:26:24.974Z,38.00
2018-02-25T05:28:53.240Z,38.70
2018-02-25T05:31:21.498Z,37.90
2018-02-25T05:33:49.785Z,38.40
2018-02-25T05:36:19.213Z,38.10
2018-02-25T05:38:47.513Z,38.50
2018-02-25T05:41:15.811Z,38.90
2018-02-25T05:43:44.051Z,39.20
2018-02-25T05:46:12.349Z,38.70
2018-02-25T05:48:41.419Z,38.50
2018-02-25T05:51:09.665Z,38.50
2018-02-25T05:53:37.970Z,38.70
2018-02-25T05:56:06.205Z,38.40
2018-02-25T05:58:34.517Z,38.30
2018-02-25T06:01:02.765Z,37.90
2018-02-25T06:03:31.053Z,38.50
2018-02-25T06:05:59.313Z,38.30
2018-02-25T06:08:27.560Z,38.40
2018-02-25T06:10:56.604Z,38.90
2018-02-25T06:13:24.853Z,38.90
2018-02-25T06:15:53.159Z,38.20
2018-02-25T06:18:21.416Z,38.20
2018-02-25T06:20:50.521Z,38.00
2018-02-25T06:23:18.774Z,38.30
2018-02-25T06:25:47.777Z,38.90
2018-02-25T06:28:17.535Z,38.80
2018-02-25T06:30:45.786Z,38.60
2018-02-25T06:33:14.057Z,38.70
2018-02-25T06:35:42.354Z,38.90
2018-02-25T06:38:10.629Z,38.70
2018-02-25T06:40:39.804Z,38.90
2018-02-25T06:43:08.050Z,38.90
2018-02-25T06:45:37.080Z,39.10
2018-02-25T06:48:05.420Z,39.10
2018-02-25T06:50:34.470Z,38.80
2018-02-25T06:53:02.728Z,38.80
2018-02-25T06:55:31.045Z,39.00
2018-02-25T06:57:59.322Z,38.60
2018-02-25T07:00:27.612Z,38.80
2018-02-25T07:02:55.899Z,39.10
2018-02-25T07:05:24.134Z,39.40
2018-02-25T07:07:52.384Z,39.20
2018-02-25T07:10:20.719Z,39.80
2018-02-25T07:12:49.042Z,38.90
2018-02-25T07:15:18.133Z,39.30
2018-02-25T07:17:46.382Z,38.70
2018-02-25T07:20:15.480Z,39.20
2018-02-25T07:22:44.496Z,38.70
2018-02-25T07:25:12.783Z,38.70
2018-02-25T07:27:41.043Z,38.90
2018-02-25T07:30:09.289Z,38.90
2018-02-25T07:32:37.608Z,39.00
2018-02-25T07:35:05.897Z,38.90
2018-02-25T07:37:34.136Z,38.50
2018-02-25T07:40:03.170Z,38.90
2018-02-25T07:42:31.483Z,38.90
2018-02-25T07:44:59.694Z,39.00
2018-02-25T07:47:28.703Z,38.70
2018-02-25T07:49:57.827Z,38.70
2018-02-25T07:52:26.092Z,39.10
2018-02-25T07:54:54.336Z,38.60
2018-02-25T07:57:23.411Z,38.60
2018-02-25T07:59:51.688Z,38.50
2018-02-25T08:02:19.957Z,38.20
2018-02-25T08:04:48.200Z,38.60
2018-02-25T08:07:16.491Z,38.00
2018-02-25T08:09:44.803Z,38.20
2018-02-25T08:12:13.086Z,37.90
2018-02-25T08:14:42.185Z,38.40
2018-02-25T08:17:11.246Z,38.90
2018-02-25T08:19:39.531Z,38.80
2018-02-25T08:22:07.792Z,38.20
2018-02-25T08:24:36.087Z,37.80
2018-02-25T08:27:04.400Z,37.60
2018-02-25T08:29:33.424Z,37.60
2018-02-25T08:32:01.696Z,37.60
2018-02-25T08:34:30.011Z,37.50
2018-02-25T08:36:58.305Z,37.20
2018-02-25T08:39:26.609Z,37.50
2018-02-25T08:41:55.638Z,37.50
2018-02-25T08:44:23.916Z,37.50
2018-02-25T08:46:52.219Z,37.60
2018-02-25T08:49:20.467Z,37.60
2018-02-25T08:51:48.747Z,37.60
2018-02-25T08:54:16.991Z,37.30
2018-02-25T08:56:45.327Z,37.20
2018-02-25T08:59:13.583Z,36.90
2018-02-25T09:01:42.656Z,36.60
2018-02-25T09:04:10.961Z,36.60
2018-02-25T09:06:40.025Z,36.40
2018-02-25T09:09:08.323Z,37.00
2018-02-25T09:11:36.610Z,36.20
2018-02-25T09:14:04.880Z,35.90
2018-02-25T09:16:33.129Z,36.00
2018-02-25T09:19:01.430Z,35.90
2018-02-25T09:21:29.700Z,35.70
2018-02-25T09:23:57.949Z,35.10
2018-02-25T09:26:26.274Z,34.80
2018-02-25T09:28:54.553Z,34.90
2018-02-25T09:31:22.850Z,35.10
2018-02-25T09:33:51.105Z,34.50
2018-02-25T09:36:19.350Z,34.30
2018-02-25T09:38:47.663Z,34.10
2018-02-25T09:41:15.917Z,34.10
2018-02-25T09:43:44.247Z,34.50
2018-02-25T09:46:12.490Z,34.20
2018-02-25T09:48:40.742Z,34.40
2018-02-25T09:51:09.052Z,34.30
2018-02-25T09:53:37.345Z,34.30
2018-02-25T09:56:06.419Z,35.20
2018-02-25T09:58:34.703Z,34.50
2018-02-25T10:01:03.008Z,34.20
2018-02-25T10:03:31.297Z,34.10
2018-02-25T10:06:00.309Z,34.40
2018-02-25T10:08:28.643Z,34.40
2018-02-25T10:10:56.885Z,34.30
2018-02-25T10:13:25.173Z,34.30
2018-02-25T10:15:53.485Z,34.50
2018-02-25T10:18:22.745Z,34.50
2018-02-25T10:20:50.988Z,34.00
2018-02-25T10:23:19.290Z,34.10
2018-02-25T10:25:47.551Z,34.30
2018-02-25T10:28:15.809Z,33.90
2018-02-25T10:30:45.685Z,34.30
2018-02-25T10:33:13.956Z,34.20
2018-02-25T10:35:42.262Z,34.00
2018-02-25T10:38:10.507Z,33.00
2018-02-25T10:40:38.749Z,32.80
2018-02-25T10:43:07.837Z,33.10
2018-02-25T10:45:36.860Z,33.30
2018-02-25T10:48:05.149Z,33.30
2018-02-25T10:50:33.413Z,33.60
2018-02-25T10:53:01.681Z,33.20
2018-02-25T10:55:29.986Z,34.00
2018-02-25T10:57:58.264Z,33.70
2018-02-25T11:00:32.137Z,33.00
2018-02-25T11:03:00.468Z,32.70
2018-02-25T11:05:28.713Z,33.50
2018-02-25T11:07:56.972Z,32.10
2018-02-25T11:10:25.213Z,32.80
2018-02-25T11:12:53.488Z,32.90
2018-02-25T11:15:21.737Z,32.50
2018-02-25T11:17:50.012Z,32.60
2018-02-25T11:20:18.288Z,31.80
2018-02-25T11:22:46.583Z,31.50
2018-02-25T11:25:14.848Z,31.70
2018-02-25T11:27:43.102Z,32.00
2018-02-25T11:30:11.429Z,31.30
2018-02-25T11:32:39.670Z,30.90
2018-02-25T11:35:07.982Z,32.40
2018-02-25T11:37:36.263Z,32.00
2018-02-25T11:40:04.544Z,30.20
2018-02-25T11:42:32.796Z,32.10
2018-02-25T11:45:01.160Z,30.80
2018-02-25T11:47:29.461Z,30.30
2018-02-25T11:49:57.736Z,31.90
2018-02-25T11:52:25.975Z,31.30
2018-02-25T11:54:55.082Z,30.50
2018-02-25T11:57:23.317Z,29.40
2018-02-25T11:59:52.383Z,28.60
2018-02-25T12:02:20.634Z,28.50
2018-02-25T12:04:49.662Z,27.30
2018-02-25T12:07:17.926Z,27.60
2018-02-25T12:09:46.173Z,28.60
2018-02-25T12:12:14.488Z,27.00
2018-02-25T12:14:42.740Z,27.80
2018-02-25T12:17:11.073Z,25.80
2018-02-25T12:19:40.120Z,26.50
2018-02-25T12:22:09.184Z,28.00
2018-02-25T12:24:38.130Z,27.90
2018-02-25T12:27:07.246Z,25.70
2018-02-25T12:29:36.338Z,28.10
2018-02-25T12:32:04.591Z,28.00
2018-02-25T12:34:32.875Z,27.00
2018-02-25T12:37:01.138Z,28.20
2018-02-25T12:39:29.411Z,26.50
2018-02-25T12:41:58.968Z,26.90
2018-02-25T12:44:29.456Z,24.90
2018-02-25T12:46:58.497Z,27.80
2018-02-25T12:49:26.744Z,27.80
2018-02-25T12:51:54.993Z,25.10
2018-02-25T12:54:23.271Z,27.90
2018-02-25T12:56:51.562Z,27.60
2018-02-25T12:59:20.600Z,27.80
2018-02-25T13:01:48.858Z,29.80
2018-02-25T13:04:17.939Z,29.40
2018-02-25T13:06:47.114Z,29.40
2018-02-25T13:09:15.444Z,28.90
2018-02-25T13:11:44.520Z,28.60
2018-02-25T13:14:12.796Z,28.60
2018-02-25T13:16:41.081Z,25.10
2018-02-25T13:19:10.415Z,26.50
2018-02-25T13:21:38.690Z,26.50
2018-02-25T13:24:06.988Z,26.40
2018-02-25T13:26:35.268Z,24.90
2018-02-25T13:29:03.526Z,24.70
2018-02-25T13:31:31.819Z,25.80
2018-02-25T13:34:00.158Z,23.20
2018-02-25T13:36:29.233Z,25.70
2018-02-25T13:38:57.500Z,25.70
2018-02-25T13:41:25.810Z,23.70
2018-02-25T13:43:54.871Z,21.20
2018-02-25T13:46:23.120Z,21.20
2018-02-25T13:48:51.402Z,22.90
2018-02-25T13:51:19.714Z,21.50
2018-02-25T13:53:47.970Z,23.80
2018-02-25T13:56:16.266Z,22.00
2018-02-25T13:58:44.562Z,22.50
2018-02-25T14:01:13.621Z,22.50
2018-02-25T14:03:41.883Z,22.50
2018-02-25T14:06:10.129Z,22.60
2018-02-25T14:08:38.437Z,22.50
2018-02-25T14:11:06.747Z,23.00
2018-02-25T14:13:35.050Z,22.70
2018-02-25T14:16:04.104Z,21.40
2018-02-25T14:18:32.371Z,21.30
2018-02-25T14:21:00.671Z,20.80
2018-02-25T14:23:29.007Z,20.50
2018-02-25T14:25:57.271Z,23.10
2018-02-25T14:28:25.520Z,22.70
2018-02-25T14:30:54.614Z,20.20
2018-02-25T14:33:24.242Z,18.70
2018-02-25T14:35:52.501Z,18.10
2018-02-25T14:38:21.616Z,17.40
2018-02-25T14:40:49.949Z,17.40
2018-02-25T14:43:18.228Z,19.10
2018-02-25T14:45:46.499Z,19.40
2018-02-25T14:48:15.374Z,18.90
2018-02-25T14:50:43.669Z,18.00
2018-02-25T14:53:11.948Z,18.30
2018-02-25T14:55:40.227Z,17.80
2018-02-25T14:58:08.847Z,17.00
2018-02-25T15:00:37.880Z,18.50
2018-02-25T15:03:06.174Z,18.40
2018-02-25T15:05:34.479Z,18.20
2018-02-25T15:08:02.782Z,17.80
2018-02-25T15:10:32.123Z,18.40
2018-02-25T15:13:00.422Z,18.40
2018-02-25T15:15:28.703Z,18.60
2018-02-25T15:17:56.999Z,18.70
2018-02-25T15:20:26.109Z,18.40
2018-02-25T15:22:55.188Z,18.50
2018-02-25T15:25:23.458Z,18.50
2018-02-25T15:27:51.725Z,18.30
2018-02-25T15:30:20.043Z,19.10
2018-02-25T15:32:49.058Z,18.80
2018-02-25T15:35:17.680Z,18.70
2018-02-25T15:37:45.974Z,18.70
2018-02-25T15:40:14.216Z,19.10
2018-02-25T15:42:42.527Z,19.10
2018-02-25T15:45:10.807Z,19.30
2018-02-25T15:47:39.093Z,19.40
2018-02-25T15:50:08.127Z,19.50
2018-02-25T15:52:37.262Z,19.40
2018-02-25T15:55:05.531Z,19.90
2018-02-25T15:57:33.818Z,19.70
2018-02-25T16:00:02.117Z,19.90
2018-02-25T16:02:31.179Z,20.20
2018-02-25T16:04:59.440Z,20.20
2018-02-25T16:07:27.717Z,20.30
2018-02-25T16:09:56.000Z,20.40
2018-02-25T16:12:24.267Z,20.40
2018-02-25T16:14:53.411Z,20.50
2018-02-25T16:17:21.743Z,20.50
2018-02-25T16:19:50.768Z,20.50
2018-02-25T16:22:19.006Z,20.60
2018-02-25T16:24:47.258Z,20.80
2018-02-25T16:27:15.544Z,20.90
2018-02-25T16:29:43.811Z,21.40
2018-02-25T16:32:12.079Z,21.60
2018-02-25T16:34:41.088Z,21.90
2018-02-25T16:37:09.350Z,21.90
2018-02-25T16:39:38.374Z,22.30
2018-02-25T16:42:06.673Z,22.70
2018-02-25T16:44:35.214Z,22.20
2018-02-25T16:47:04.275Z,22.60
2018-02-25T16:49:32.578Z,22.60
2018-02-25T16:52:01.629Z,23.30
2018-02-25T16:54:29.917Z,23.20
2018-02-25T16:56:58.364Z,23.30
2018-02-25T16:59:27.213Z,23.40
2018-02-25T17:01:56.278Z,23.80
2018-02-25T17:04:24.580Z,23.80
2018-02-25T17:06:52.834Z,24.00
2018-02-25T17:09:21.883Z,24.00
2018-02-25T17:11:50.185Z,24.00
2018-02-25T17:14:18.481Z,24.20
2018-02-25T17:16:47.603Z,24.20
2018-02-25T17:19:15.852Z,24.40
2018-02-25T17:21:44.136Z,24.50
2018-02-25T17:24:12.424Z,24.70
2018-02-25T17:26:40.737Z,24.70
2018-02-25T17:29:09.783Z,24.50
2018-02-25T17:31:38.057Z,24.80
2018-02-25T17:34:06.370Z,24.80
2018-02-25T17:36:34.674Z,24.90
2018-02-25T17:39:03.839Z,24.80
2018-02-25T17:41:32.122Z,24.90
2018-02-25T17:44:01.177Z,25.40
2018-02-25T17:46:29.433Z,24.90
2018-02-25T17:48:57.725Z,24.90
2018-02-25T17:51:25.989Z,25.00
2018-02-25T17:53:54.317Z,25.20
2018-02-25T17:56:22.654Z,25.10
2018-02-25T17:58:50.951Z,25.00
2018-02-25T18:01:19.254Z,25.10
2018-02-25T18:03:47.533Z,25.10
2018-02-25T18:06:16.594Z,25.70
2018-02-25T18:08:44.869Z,25.10
2018-02-25T18:11:13.131Z,25.10
2018-02-25T18:13:41.389Z,25.20
2018-02-25T18:16:09.646Z,25.20
2018-02-25T18:18:39.294Z,25.20
2018-02-25T18:21:07.552Z,25.30
2018-02-25T18:23:35.809Z,25.30
2018-02-25T18:26:05.396Z,25.30
2018-02-25T18:28:33.677Z,25.30
2018-02-25T18:31:01.995Z,25.60
2018-02-25T18:33:30.837Z,25.80
2018-02-25T18:35:59.125Z,25.40
2018-02-25T18:38:27.431Z,25.30
2018-02-25T18:40:56.158Z,25.90
2018-02-25T18:43:24.434Z,25.40
2018-02-25T18:45:52.725Z,25.40
2018-02-25T18:48:20.973Z,25.40
2018-02-25T18:50:50.151Z,25.50
2018-02-25T18:53:18.408Z,25.60
2018-02-25T18:55:47.533Z,25.60
2018-02-25T18:58:15.834Z,25.60
2018-02-25T19:00:44.187Z,25.70
2018-02-25T19:03:13.636Z,25.90
2018-02-25T19:05:42.822Z,25.90
2018-02-25T19:08:11.156Z,25.80
2018-02-25T19:10:39.434Z,25.90
2018-02-25T19:13:07.765Z,25.90
2018-02-25T19:15:36.067Z,25.80
2018-02-25T19:18:04.439Z,26.00
2018-02-25T19:20:33.101Z,26.10
2018-02-25T19:23:01.426Z,26.10
2018-02-25T19:25:29.682Z,26.20
2018-02-25T19:27:57.949Z,26.40
2018-02-25T19:30:26.230Z,26.40
2018-02-25T19:32:54.533Z,26.30
2018-02-25T19:35:22.861Z,26.30
2018-02-25T19:37:56.850Z,26.40
2018-02-25T19:40:30.816Z,26.30
2018-02-25T19:42:59.117Z,26.40
2018-02-25T19:45:27.460Z,26.40
2018-02-25T19:47:55.725Z,26.60
2018-02-25T19:50:23.997Z,26.40
2018-02-25T19:52:53.069Z,26.40
2018-02-25T19:55:21.341Z,26.40
2018-02-25T19:57:49.651Z,26.70
2018-02-25T20:00:17.961Z,26.50
2018-02-25T20:02:46.237Z,26.50
2018-02-25T20:05:14.534Z,26.50
2018-02-25T20:07:43.570Z,26.40
2018-02-25T20:10:11.865Z,26.40
2018-02-25T20:12:40.163Z,26.40
2018-02-25T20:15:08.437Z,26.60
2018-02-25T20:17:36.694Z,26.60
2018-02-25T20:20:05.024Z,26.70
2018-02-25T20:22:33.317Z,26.70
2018-02-25T20:25:01.579Z,26.80
2018-02-25T20:27:29.889Z,26.70
2018-02-25T20:29:58.157Z,26.60
2018-02-25T20:32:26.512Z,26.80
2018-02-25T20:34:54.811Z,26.70
2018-02-25T20:37:23.140Z,26.60
2018-02-25T20:39:51.465Z,26.80
2018-02-25T20:42:19.775Z,26.70
2018-02-25T20:44:48.064Z,26.80
2018-02-25T20:47:16.329Z,26.90
2018-02-25T20:49:45.521Z,26.90
2018-02-25T20:52:13.825Z,26.90
2018-02-25T20:54:42.181Z,27.00
2018-02-25T20:57:10.480Z,26.60
2018-02-25T20:59:38.798Z,26.90
2018-02-25T21:10:18.595Z,26.90
2018-02-25T21:12:48.953Z,27.00
2018-02-25T21:15:17.250Z,26.90
2018-02-25T21:17:45.594Z,27.00
2018-02-25T21:20:13.853Z,27.10
2018-02-25T21:22:42.170Z,27.00
2018-02-25T21:25:11.173Z,27.10
2018-02-25T21:27:39.460Z,27.00
2018-02-25T21:30:07.718Z,27.10
2018-02-25T21:32:36.026Z,27.20
2018-02-25T21:35:04.305Z,27.10
2018-02-25T21:37:33.392Z,27.00
2018-02-25T21:40:01.685Z,27.00
2018-02-25T21:42:30.761Z,27.20
2018-02-25T21:44:59.008Z,27.20
2018-02-25T21:47:27.354Z,27.30
2018-02-25T21:49:55.638Z,27.30
2018-02-25T21:52:23.926Z,27.30
2018-02-25T21:54:57.230Z,27.20
2018-02-25T21:57:31.157Z,26.90
2018-02-25T22:00:05.061Z,27.00
2018-02-25T22:02:39.075Z,26.90
2018-02-25T22:05:34.855Z,27.20
2018-02-25T22:08:03.144Z,27.30
2018-02-25T22:10:34.801Z,27.50
2018-02-25T22:13:04.990Z,27.40
2018-02-25T22:15:34.128Z,27.60
2018-02-25T22:18:07.982Z,27.60
2018-02-25T22:20:37.165Z,27.50
2018-02-25T22:23:05.479Z,27.70
2018-02-25T22:25:34.486Z,28.10
2018-02-25T22:28:02.767Z,27.60
2018-02-25T22:30:31.073Z,27.60
2018-02-25T22:32:59.400Z,27.70
2018-02-25T22:35:28.462Z,27.80
2018-02-25T22:37:56.770Z,27.60
2018-02-25T22:40:25.058Z,28.00
2018-02-25T22:42:54.964Z,27.60
2018-02-25T22:45:23.222Z,27.60
2018-02-25T22:47:51.477Z,28.00
2018-02-25T22:50:19.745Z,27.90
2018-02-25T22:52:48.022Z,27.70
2018-02-25T22:55:16.276Z,27.90
2018-02-25T22:57:44.595Z,27.70
2018-02-25T23:00:12.920Z,28.00
2018-02-25T23:02:41.933Z,27.90
2018-02-25T23:05:10.197Z,27.90
2018-02-25T23:07:38.524Z,28.00
2018-02-25T23:10:06.777Z,28.00
2018-02-25T23:12:35.321Z,27.90
2018-02-25T23:15:03.584Z,28.20
2018-02-25T23:17:31.909Z,28.30
2018-02-25T23:20:00.154Z,28.30
2018-02-25T23:22:32.491Z,28.30
2018-02-25T23:25:00.737Z,28.40
2018-02-25T23:27:28.976Z,28.10
2018-02-25T23:29:58.003Z,28.10
2018-02-25T23:32:26.232Z,28.40
2018-02-25T23:34:54.539Z,28.30
2018-02-25T23:37:22.791Z,28.40
2018-02-25T23:39:51.089Z,28.40
2018-02-25T23:42:19.334Z,28.40
2018-02-25T23:44:47.583Z,28.40
2018-02-25T23:47:15.918Z,28.30
2018-02-25T23:49:44.932Z,28.40
2018-02-25T23:52:13.236Z,28.40
2018-02-25T23:54:41.477Z,28.30
2018-02-25T23:57:09.777Z,28.60
2018-02-25T23:59:38.072Z,28.90
